Portada
METAR-TAF:

METAR-TAF

Aeroports :

Topcliffe, Anglaterra

latitud: 54-12N, longitud: 001-23W, altitud: 28 m

Observació

L'informe es va fer fa 1 hora i 4 minuts, a les 21:50 UTC
Vent 15 kt del Oest amb ràfegues de 25 kt
Temperatura 4°C
Humitat 81%
Pressió 1009 hPa
Visibilitat 10 km o més

METAR: EGXZ 182150Z AUTO 26015G25KT 9999 NCD 04/01 Q1009 RERA

Hora: 22:54 (22:54 UTC)


TAF: manca

Observacions i pronòstics meteorològics de més de 4000 aeroports (METAR i TAF).

Les estacions disponibles són els punts grocs i vermells al mapa.

Posi el ratolí al punt desitjat per veure el nom de l'estació.

Feu clic per veure les observacions i els pronòstics meteorològics.

Per canviar el mapa: feu clic els botons verds amb una creu de color negre per apropar; al botó verd amb un guió per allunyar la imatge; o en les fletxes verdes per a mapes adjacents.


METAR-TAF: